• Join FlightAware (Why Join?)
  • Login
  • US Flag 
08:55PM EST


 

Airport Tracker/Info


-or-


 

Live Flight TrackerFlight Track Log ✈ RPA3392 ✈ 04-Jun-2013 ✈ KMSP - KDCA

Flight Track Log - Related Links

Times and Time Zones

All times are in EDT time to prevent confusion due to time zone crossing. See the RPA3392 flight status page for this flight to view local times or setup timezone preferences in your user account.

Time Position Orientation Groundspeed Altitude Reporting Facility
EDT Latitude Longitude Course Direction KTS MPH feet Rate Location/Type
07:00PM 44.8500 -93.2167 125° Southeast 147 169 2,300  Level Minneapolis TRACON
07:01PM 44.8436 -93.1992 117° Southeast 156 180 2,800 1,705 Climbing Minneapolis Center
07:02PM 44.8139 -93.1222 119° Southeast 229 264 5,000 2,352 Climbing Minneapolis Center
07:03PM 44.7764 -93.0286 119° Southeast 270 311 7,700 2,710 Climbing Minneapolis Center
07:04PM 44.7375 -92.9258 118° Southeast 294 338 10,600 2,226 Climbing Minneapolis Center
07:05PM 44.7006 -92.7761 109° East 348 400 12,300 1,790 Climbing Minneapolis Center
07:06PM 44.6749 -92.4719 125° Southeast  Level Estimated
07:06PM 44.6656 -92.6394 110° East 373 429 14,300  Level Minneapolis Center
07:07PM 44.6289 -92.4953 110° East 399 459 16,100 1,694 Climbing Minneapolis Center
07:08PM 44.5917 -92.3483 110° East 400 460 17,800 1,839 Climbing Minneapolis Center
07:09PM 44.5511 -92.1997 111° Southeast 408 470 19,900 1,790 Climbing Minneapolis Center
07:10PM 44.4697 -92.0422 126° Southeast 414 476 21,500 1,742 Climbing Minneapolis Center
07:11PM 44.3994 -91.9075 126° Southeast 427 491 23,500 1,266 Climbing Minneapolis Center
07:12PM 44.3547 -91.8211 126° Southeast 421 484 23,800 581 Climbing Chicago Center
07:12PM 44.3369 -91.7644 114° Southeast 434 499 24,100 1,247 Climbing Minneapolis Center
07:13PM 44.2769 -91.6097 118° Southeast 452 520 25,400 1,403 Climbing Minneapolis Center
07:14PM 44.2186 -91.4528 117° Southeast 456 525 27,000 1,258 Climbing Minneapolis Center
07:15PM 44.1547 -91.2900 119° Southeast 458 527 28,000 1,500 Climbing Minneapolis Center
07:16PM 44.0947 -91.1311 118° Southeast 464 534 30,100 1,536 Climbing Minneapolis Center
07:17PM 44.0356 -90.9781 118° Southeast 458 527 31,200 1,286 Climbing Minneapolis Center
07:19PM 43.9628 -90.7939 119° Southeast 457 526 32,800 1,200 Climbing Minneapolis Center
07:20PM 43.9019 -90.6392 119° Southeast 460 529 33,700 1,016 Climbing Minneapolis Center
07:21PM 43.8358 -90.4686 118° Southeast 463 533 34,900 629 Climbing Minneapolis Center
07:22PM 43.7736 -90.3117 119° Southeast 463 533 35,000 48 Climbing Minneapolis Center
07:23PM 43.7108 -90.1569 119° Southeast 464 534 35,000  Level Minneapolis Center
07:24PM 43.6486 -90.0008 119° Southeast 462 532 35,000  Level Minneapolis Center
07:24PM 43.5944 -89.8731 120° Southeast 463 533 35,000  Level Chicago Center
07:25PM 43.5353 -89.7150 117° Southeast 464 534 35,000  Level Chicago Center
07:27PM 43.4892 -89.5492 111° Southeast 462 532 35,000  Level Chicago Center
07:28PM 43.4339 -89.3550 111° Southeast 465 535 35,000  Level Chicago Center
07:29PM 43.3844 -89.1894 112° Southeast 469 540 35,000  Level Chicago Center
07:30PM 43.3361 -89.0250 112° Southeast 467 537 35,000  Level Chicago Center
07:31PM 43.2867 -88.8583 112° Southeast 471 542 35,000  Level Chicago Center
07:32PM 43.2294 -88.6681 112° Southeast 468 539 35,000  Level Chicago Center
07:33PM 43.1814 -88.5056 112° Southeast 466 536 35,000  Level Chicago Center
07:34PM 43.1333 -88.3425 112° Southeast 467 537 35,000  Level Chicago Center
07:35PM 43.1039 -88.1714 103° East 469 540 35,000  Level Chicago Center
07:36PM 43.0825 -87.9664 98° East 469 540 35,000  Level Chicago Center
07:37PM 43.0625 -87.7900 99° East 470 541 35,000  Level Chicago Center
07:38PM 43.0433 -87.6139 98° East 469 540 35,000  Level Chicago Center
07:39PM 43.0231 -87.4364 99° East 474 545 35,000  Level Chicago Center
07:40PM 43.0022 -87.2578 99° East 476 548 35,000  Level Chicago Center
07:41PM 42.9831 -87.0811 98° East 474 545 35,000  Level Chicago Center
07:42PM 42.9614 -86.9036 99° East 476 548 35,000  Level Chicago Center
07:43PM 42.9367 -86.6906 99° East 476 548 35,000  Level Chicago Center
07:44PM 42.9150 -86.5147 99° East 475 547 35,000  Level Chicago Center
07:45PM 42.8931 -86.3372 100° East 476 548 35,000  Level Chicago Center
07:46PM 42.8703 -86.1611 100° East 481 554 35,000  Level Chicago Center
07:47PM 42.8442 -85.9503 100° East 481 554 35,000  Level Chicago Center
07:48PM 42.8217 -85.7733 100° East 482 555 35,000  Level Chicago Center
07:49PM 42.7994 -85.5972 100° East 480 552 35,000  Level Chicago Center
07:50PM 42.7636 -85.4275 106° East 470 541 35,000  Level Chicago Center
07:51PM 42.7081 -85.2681 115° Southeast 469 540 35,000  Level Chicago Center
07:52PM 42.6417 -85.0789 115° Southeast 465 535 35,000  Level Chicago Center
07:53PM 42.5847 -84.9208 116° Southeast 467 537 35,000  Level Chicago Center
07:54PM 42.5275 -84.7631 116° Southeast 467 537 35,000  Level Chicago Center
07:55PM 42.4703 -84.6031 116° Southeast 470 541 35,000  Level Chicago Center
07:57PM 42.3717 -84.3411 117° Southeast 467 537 35,000  Level Cleveland Center
07:59PM 42.2858 -84.1022 116° Southeast 463 533 35,000  Level Chicago Center
07:59PM 42.2456 -84.0447 133° Southeast 462 532 35,000  Level Cleveland Center
08:00PM 42.1778 -83.9372 130° Southeast 462 532 35,000  Level Cleveland Center
08:01PM 42.0758 -83.7864 132° Southeast 457 526 35,000  Level Cleveland Center
08:02PM 41.9917 -83.6592 132° Southeast 457 526 35,000  Level Cleveland Center
08:03PM 41.9075 -83.5294 131° Southeast 457 526 35,000  Level Cleveland Center
08:04PM 41.8231 -83.4031 132° Southeast 457 526 35,000  Level Cleveland Center
08:05PM 41.7386 -83.2769 132° Southeast 457 526 35,000  Level Cleveland Center
08:06PM 41.6539 -83.1511 132° Southeast 457 526 35,000  Level Cleveland Center
08:07PM 41.5711 -83.0256 131° Southeast 457 526 35,000  Level Cleveland Center
08:08PM 41.4861 -82.9033 133° Southeast 457 526 35,000  Level Cleveland Center
08:09PM 41.3989 -82.7756 132° Southeast 452 520 35,000  Level Cleveland Center
08:10PM 41.3139 -82.6511 132° Southeast 452 520 35,000  Level Cleveland Center
08:11PM 41.2283 -82.5242 132° Southeast 452 520 35,000  Level Cleveland Center
08:12PM 41.1408 -82.4028 134° Southeast 452 520 35,000  Level Cleveland Center
08:13PM 41.0653 -82.2906 132° Southeast 452 520 35,000  Level Cleveland Center
08:14PM 40.9775 -82.1672 133° Southeast 452 520 35,000  Level Cleveland Center
08:15PM 40.8917 -82.0417 132° Southeast 452 520 35,000  Level Cleveland Center
08:16PM 40.8056 -81.9217 133° Southeast 452 520 35,000  Level Cleveland Center
08:17PM 40.7214 -81.8022 133° Southeast 452 520 35,000  Level Cleveland Center
08:18PM 40.6353 -81.6775 132° Southeast 452 520 35,000  Level Cleveland Center
08:19PM 40.5467 -81.5531 133° Southeast 452 520 35,000  Level Cleveland Center
08:20PM 40.4600 -81.4317 133° Southeast 452 520 35,000  Level Cleveland Center
08:21PM 40.3672 -81.2969 132° Southeast 452 520 35,000  Level Cleveland Center
08:22PM 40.2783 -81.1764 134° Southeast 452 520 35,000  Level Cleveland Center
08:23PM 40.1914 -81.0533 133° Southeast 452 520 35,000  Level Cleveland Center
08:24PM 40.1042 -80.9333 134° Southeast 452 520 35,000  Level Cleveland Center
08:25PM 40.0147 -80.8108 134° Southeast 452 520 35,000  Level Cleveland Center
08:26PM 39.9294 -80.6914 133° Southeast 452 520 35,000  Level Cleveland Center
08:27PM 39.8419 -80.5694 133° Southeast 452 520 35,000  Level Cleveland Center
08:28PM 39.7522 -80.4481 134° Southeast 457 526 35,000  Level Cleveland Center
08:29PM 39.6644 -80.3269 133° Southeast 457 526 35,000  Level Cleveland Center
08:30PM 39.5789 -80.2061 133° Southeast 457 526 35,000 -300 Level Cleveland Center
08:31PM 39.4886 -80.0856 134° Southeast 457 526 34,400 -1,065 Descending Cleveland Center
08:32PM 39.4047 -79.9725 134° Southeast 440 506 32,800 -1,632 Descending Washington Center
08:33PM 39.3197 -79.8492 132° Southeast 452 520 31,000 -908 Descending Washington Center
08:34PM 39.2875 -79.6919 105° East 447 514 31,000  Level Washington Center
08:35PM 39.2742 -79.5275 96° East 440 506 31,000 -492 Level Washington Center
08:36PM 39.2608 -79.3633 96° East 450 518 30,000 -1,714 Descending Washington Center
08:37PM 39.2433 -79.1856 97° East 456 525 27,600 -1,815 Descending Washington Center
08:38PM 39.2292 -79.0294 97° East 445 512 26,400 -1,339 Descending Washington Center
08:39PM 39.2144 -78.8814 97° East 437 503 24,900 -1,884 Descending Washington Center
08:40PM 39.2039 -78.7361 95° East 421 484 22,600 -2,200 Descending Washington Center
08:41PM 39.1867 -78.5936 99° East 410 472 20,500 -2,118 Descending Washington Center
08:42PM 39.1733 -78.4564 97° East 393 452 18,400 -1,950 Descending Washington Center
08:43PM 39.1533 -78.3244 101° East 387 445 16,600 -1,350 Descending Washington Center
08:44PM 39.1228 -78.2003 108° East 373 429 15,700 -942 Descending Washington Center
08:45PM 39.0900 -78.0761 109° East 367 422 14,700 -1,059 Descending Washington Center
08:46PM 39.0611 -77.9600 108° East 361 415 13,600 -1,017 Descending Washington Center
08:47PM 39.0381 -77.8606 107° East 332 382 12,700 -1,289 Descending Washington Center
08:48PM 39.0047 -77.7392 109° East 323 372 11,000 -843 Descending Washington Center
08:49PM 38.9792 -77.6450 109° East 318 366 11,000 -808 Level Washington Center
08:50PM 38.9500 -77.5500 112° Southeast 307 353 9,600 -1,615 Descending Potomac TRACON
08:51PM 38.9167 -77.4500 113° Southeast 300 345 8,200 -1,400 Descending Potomac TRACON
08:52PM 38.8667 -77.3667 128° Southeast 289 333 6,800 -1,100 Descending Potomac TRACON
08:53PM 38.8333 -77.2833 117° Southeast 277 319 6,000 -550 Descending Potomac TRACON
08:54PM 38.8000 -77.2000 117° Southeast 238 274 5,700 -750 Descending Potomac TRACON
08:55PM 38.7667 -77.1333 123° Southeast 228 262 4,500 -850 Descending Potomac TRACON
08:56PM 38.7167 -77.1167 165° South 218 251 4,000 -800 Descending Potomac TRACON
08:57PM 38.6667 -77.1333 195° South 204 235 2,900 -744 Descending Potomac TRACON
08:58PM 38.6500 -77.0667 108° East 179 206 2,500 -198 Descending Potomac TRACON
08:59PM 38.6833 -77.0500 21° North 170 196 2,500 -50 Level Potomac TRACON
09:00PM 38.7167 -77.0333 21° North 151 174 2,400 -100 Descending Potomac TRACON